createdAt,value
2022-10-22T00:00:59.368Z,78.65
2022-10-22T00:03:26.435Z,78.91
2022-10-22T00:05:53.713Z,79.17
2022-10-22T00:08:20.327Z,78.80
2022-10-22T00:10:49.752Z,79.39
2022-10-22T00:13:19.131Z,79.04
2022-10-22T00:15:45.822Z,77.67
2022-10-22T00:18:12.592Z,76.98
2022-10-22T00:20:39.825Z,76.95
2022-10-22T00:23:06.578Z,76.05
2022-10-22T00:25:35.558Z,75.53
2022-10-22T00:28:03.134Z,76.29
2022-10-22T00:30:29.709Z,75.81
2022-10-22T00:32:57.074Z,76.87
2022-10-22T00:35:23.777Z,76.18
2022-10-22T00:37:59.212Z,76.16
2022-10-22T00:40:25.887Z,76.68
2022-10-22T00:42:52.418Z,76.00
2022-10-22T00:45:25.013Z,75.97
2022-10-22T00:47:59.861Z,75.55
2022-10-22T00:50:33.080Z,76.22
2022-10-22T00:53:01.301Z,76.18
2022-10-22T00:55:28.917Z,75.50
2022-10-22T00:57:57.333Z,75.57
2022-10-22T01:00:26.787Z,75.75
2022-10-22T01:02:54.100Z,76.16
2022-10-22T01:05:21.398Z,76.63
2022-10-22T01:07:52.355Z,75.98
2022-10-22T01:10:38.998Z,75.76
2022-10-22T01:13:08.619Z,78.21
2022-10-22T01:15:45.832Z,79.54
2022-10-22T01:18:24.406Z,81.54
2022-10-22T01:20:59.425Z,81.16
2022-10-22T01:23:56.688Z,80.67
2022-10-22T01:26:47.703Z,80.29
2022-10-22T01:29:17.578Z,78.78
2022-10-22T01:31:54.039Z,79.56
2022-10-22T01:34:22.305Z,78.48
2022-10-22T01:36:51.800Z,79.58
2022-10-22T01:39:19.418Z,77.81
2022-10-22T01:41:49.226Z,78.40
2022-10-22T01:47:21.399Z,78.32
2022-10-22T01:50:12.541Z,78.66
2022-10-22T01:53:16.252Z,79.05
2022-10-22T01:56:10.535Z,78.25
2022-10-22T01:58:45.946Z,77.99
2022-10-22T02:01:28.283Z,78.50
2022-10-22T02:04:11.522Z,78.52
2022-10-22T02:06:53.193Z,79.24
2022-10-22T02:09:22.671Z,80.06
2022-10-22T02:11:52.839Z,79.65
2022-10-22T02:14:22.644Z,80.23
2022-10-22T02:16:52.842Z,81.03
2022-10-22T02:19:36.186Z,81.75
2022-10-22T02:22:03.656Z,82.21
2022-10-22T02:24:30.984Z,82.45
2022-10-22T02:27:16.891Z,81.59
2022-10-22T02:29:56.118Z,81.93
2022-10-22T02:32:32.430Z,82.29
2022-10-22T02:35:01.297Z,82.75
2022-10-22T02:37:32.139Z,82.38
2022-10-22T02:39:58.672Z,81.27
2022-10-22T02:42:26.610Z,80.68
2022-10-22T02:44:53.246Z,79.89
2022-10-22T02:47:20.116Z,79.39
2022-10-22T02:49:54.321Z,77.75
2022-10-22T02:52:21.070Z,78.32
2022-10-22T02:54:47.621Z,78.29
2022-10-22T02:57:14.274Z,77.69
2022-10-22T02:59:41.122Z,77.97
2022-10-22T03:02:07.755Z,77.70
2022-10-22T03:04:35.176Z,75.88
2022-10-22T03:07:01.711Z,76.69
2022-10-22T03:09:29.527Z,76.39
2022-10-22T03:11:58.911Z,76.53
2022-10-22T03:14:25.530Z,76.89
2022-10-22T03:16:54.980Z,77.34
2022-10-22T03:19:21.547Z,76.50
2022-10-22T03:22:04.570Z,77.09
2022-10-22T03:24:41.429Z,76.80
2022-10-22T03:27:08.895Z,77.33
2022-10-22T03:29:38.921Z,78.26
2022-10-22T03:32:05.651Z,78.30
2022-10-22T03:34:32.179Z,80.14
2022-10-22T03:37:00.790Z,80.89
2022-10-22T03:39:31.792Z,78.53
2022-10-22T03:41:58.435Z,78.12
2022-10-22T03:44:25.842Z,77.80
2022-10-22T03:46:52.437Z,78.70
2022-10-22T03:49:18.925Z,78.86
2022-10-22T03:51:45.428Z,78.83
2022-10-22T03:54:11.958Z,78.08
2022-10-22T03:56:38.459Z,76.77
2022-10-22T03:59:05.416Z,77.88
2022-10-22T04:01:34.886Z,77.80
2022-10-22T04:04:01.422Z,77.58
2022-10-22T04:06:29.679Z,77.19
2022-10-22T04:08:56.938Z,77.36
2022-10-22T04:11:23.575Z,77.25
2022-10-22T04:13:50.131Z,77.54
2022-10-22T04:16:20.417Z,77.57
2022-10-22T04:18:48.558Z,78.15
2022-10-22T04:21:17.591Z,77.97
2022-10-22T04:23:54.971Z,77.38
2022-10-22T04:26:21.527Z,77.82
2022-10-22T04:28:49.675Z,77.48
2022-10-22T04:31:19.500Z,77.79
2022-10-22T04:33:46.288Z,77.68
2022-10-22T04:36:17.968Z,78.48
2022-10-22T04:38:48.912Z,77.92
2022-10-22T04:41:18.434Z,78.60
2022-10-22T04:43:48.443Z,78.25
2022-10-22T04:46:16.872Z,78.52
2022-10-22T04:48:44.840Z,78.68
2022-10-22T04:51:17.131Z,77.46
2022-10-22T04:53:44.859Z,79.03
2022-10-22T04:56:20.790Z,77.97
2022-10-22T04:58:56.160Z,77.28
2022-10-22T05:01:31.493Z,78.18
2022-10-22T05:04:00.941Z,78.50
2022-10-22T05:06:31.481Z,78.67
2022-10-22T05:09:06.064Z,78.13
2022-10-22T05:11:36.490Z,78.59
2022-10-22T05:14:07.209Z,77.58
2022-10-22T05:16:34.766Z,78.48
2022-10-22T05:19:02.131Z,79.40
2022-10-22T05:21:29.215Z,77.44
2022-10-22T05:23:57.472Z,77.32
2022-10-22T05:26:28.852Z,78.51
2022-10-22T05:28:56.202Z,78.71
2022-10-22T05:31:22.849Z,78.60
2022-10-22T05:33:49.698Z,77.44
2022-10-22T05:36:24.284Z,76.95
2022-10-22T05:38:51.695Z,76.92
2022-10-22T05:41:26.189Z,76.08
2022-10-22T05:43:57.335Z,76.10
2022-10-22T05:46:27.188Z,76.60
2022-10-22T05:49:02.736Z,76.09
2022-10-22T05:51:32.024Z,76.31
2022-10-22T05:54:02.588Z,77.08
2022-10-22T05:56:32.068Z,77.52
2022-10-22T06:01:38.095Z,76.12
2022-10-22T06:04:07.679Z,76.03
2022-10-22T06:06:38.131Z,76.39
2022-10-22T06:09:13.531Z,76.90
2022-10-22T06:11:40.075Z,76.55
2022-10-22T06:14:06.665Z,77.46
2022-10-22T06:16:33.555Z,76.33
2022-10-22T06:19:03.683Z,77.32
2022-10-22T06:21:31.850Z,77.92
2022-10-22T06:23:59.745Z,77.49
2022-10-22T06:26:26.794Z,76.49
2022-10-22T06:28:53.351Z,77.69
2022-10-22T06:31:22.566Z,76.68
2022-10-22T06:33:49.086Z,76.41
2022-10-22T06:36:19.586Z,76.16
2022-10-22T06:38:46.658Z,76.57
2022-10-22T06:41:16.045Z,76.71
2022-10-22T06:43:47.086Z,76.72
2022-10-22T06:46:21.753Z,76.82
2022-10-22T06:48:53.118Z,76.50
2022-10-22T06:51:21.150Z,76.23
2022-10-22T06:53:48.877Z,77.27
2022-10-22T06:56:18.532Z,76.26
2022-10-22T06:58:48.550Z,77.46
2022-10-22T07:01:16.593Z,76.73
2022-10-22T07:03:43.103Z,76.69
2022-10-22T07:06:13.749Z,77.18
2022-10-22T07:08:43.712Z,76.16
2022-10-22T07:11:23.164Z,76.95
2022-10-22T07:13:50.815Z,76.77
2022-10-22T07:16:18.444Z,77.24
2022-10-22T07:18:45.995Z,76.16
2022-10-22T07:21:19.644Z,77.50
2022-10-22T07:23:46.851Z,77.27
2022-10-22T07:26:16.196Z,77.07
2022-10-22T07:28:43.023Z,77.45
2022-10-22T07:31:12.900Z,76.93
2022-10-22T07:33:40.013Z,77.68
2022-10-22T07:36:09.255Z,77.52
2022-10-22T07:38:39.223Z,76.80
2022-10-22T07:41:05.942Z,76.73
2022-10-22T07:43:35.311Z,77.83
2022-10-22T07:46:03.006Z,77.83
2022-10-22T07:48:30.053Z,77.98
2022-10-22T07:50:58.551Z,77.57
2022-10-22T07:53:25.162Z,77.56
2022-10-22T07:55:52.705Z,77.84
2022-10-22T07:58:20.876Z,77.55
2022-10-22T08:00:48.295Z,78.06
2022-10-22T08:03:16.109Z,77.70
2022-10-22T08:05:46.196Z,78.41
2022-10-22T08:08:16.709Z,77.95
2022-10-22T08:10:44.261Z,77.78
2022-10-22T08:13:11.914Z,77.92
2022-10-22T08:15:39.320Z,77.68
2022-10-22T08:18:06.363Z,77.73
2022-10-22T08:20:33.453Z,78.34
2022-10-22T08:23:00.251Z,77.22
2022-10-22T08:25:27.977Z,78.02
2022-10-22T08:27:54.813Z,77.42
2022-10-22T08:30:21.564Z,77.56
2022-10-22T08:32:50.440Z,77.59
2022-10-22T08:35:20.601Z,76.72
2022-10-22T08:37:47.172Z,78.26
2022-10-22T08:40:27.536Z,78.24
2022-10-22T08:43:27.771Z,77.09
2022-10-22T08:46:27.178Z,77.35
2022-10-22T08:49:00.483Z,76.65
2022-10-22T08:51:32.376Z,77.33
2022-10-22T08:54:01.705Z,76.33
2022-10-22T08:56:30.852Z,77.42
2022-10-22T08:59:10.068Z,76.20
2022-10-22T09:01:43.969Z,74.88
2022-10-22T09:04:33.174Z,76.57
2022-10-22T09:07:00.713Z,75.94
2022-10-22T09:09:40.834Z,76.25
2022-10-22T09:12:19.183Z,76.04
2022-10-22T09:14:47.723Z,76.35
2022-10-22T09:18:16.640Z,75.85
2022-10-22T09:20:48.163Z,75.28
2022-10-22T09:23:38.044Z,75.72
2022-10-22T09:26:13.145Z,76.24
2022-10-22T09:28:39.616Z,76.66
2022-10-22T09:31:13.991Z,74.56
2022-10-22T09:33:42.574Z,75.03
2022-10-22T09:36:15.856Z,74.16
2022-10-22T09:38:51.140Z,73.85
2022-10-22T09:41:20.912Z,74.75
2022-10-22T09:43:48.119Z,73.87
2022-10-22T09:46:24.565Z,74.03
2022-10-22T09:49:06.704Z,74.10
2022-10-22T09:51:42.432Z,73.76
2022-10-22T09:54:38.519Z,73.29
2022-10-22T09:57:20.955Z,74.09
2022-10-22T09:59:49.609Z,73.78
2022-10-22T10:02:37.617Z,73.97
2022-10-22T10:05:06.825Z,74.06
2022-10-22T10:07:37.609Z,72.59
2022-10-22T10:10:26.187Z,74.26
2022-10-22T10:13:41.184Z,73.47
2022-10-22T10:16:15.870Z,72.48
2022-10-22T10:19:04.074Z,72.11
2022-10-22T10:21:39.595Z,72.16
2022-10-22T10:24:19.145Z,72.13
2022-10-22T10:27:20.649Z,71.39
2022-10-22T10:30:20.847Z,71.48
2022-10-22T10:33:06.259Z,71.90
2022-10-22T10:35:55.437Z,71.50
2022-10-22T10:38:41.936Z,71.29
2022-10-22T10:41:18.768Z,70.15
2022-10-22T10:44:12.279Z,71.39
2022-10-22T10:47:04.416Z,70.91
2022-10-22T10:49:40.486Z,70.35
2022-10-22T10:52:28.713Z,71.28
2022-10-22T10:55:21.600Z,71.88
2022-10-22T10:58:22.526Z,71.93
2022-10-22T11:01:10.785Z,72.94
2022-10-22T11:03:43.176Z,72.90
2022-10-22T11:06:14.693Z,72.51
2022-10-22T11:08:50.133Z,72.34
2022-10-22T11:11:25.023Z,71.76
2022-10-22T11:14:13.122Z,71.80
2022-10-22T11:16:53.813Z,71.81
2022-10-22T11:19:22.850Z,71.85
2022-10-22T11:22:11.779Z,71.98
2022-10-22T11:24:53.916Z,72.03
2022-10-22T11:27:53.483Z,70.84
2022-10-22T11:30:22.931Z,70.84
2022-10-22T11:33:05.605Z,70.66
2022-10-22T11:35:35.836Z,69.84
2022-10-22T11:38:11.584Z,68.74
2022-10-22T11:40:46.670Z,69.00
2022-10-22T11:43:52.013Z,69.20
2022-10-22T11:46:18.460Z,69.15
2022-10-22T11:49:00.765Z,68.62
2022-10-22T11:51:41.239Z,67.55
2022-10-22T11:54:42.639Z,68.53
2022-10-22T11:57:18.073Z,68.09
2022-10-22T11:59:48.127Z,68.99
2022-10-22T12:02:43.083Z,68.95
2022-10-22T12:05:34.535Z,68.20
2022-10-22T12:08:16.283Z,68.08
2022-10-22T12:11:01.691Z,67.60
2022-10-22T12:13:34.268Z,68.55
2022-10-22T12:16:10.486Z,67.79
2022-10-22T12:18:44.552Z,67.71
2022-10-22T12:21:14.729Z,66.90
2022-10-22T12:23:52.417Z,67.22
2022-10-22T12:29:10.272Z,68.26
2022-10-22T12:31:42.947Z,67.74
2022-10-22T12:34:23.733Z,69.08
2022-10-22T12:36:54.334Z,68.36
2022-10-22T12:39:33.063Z,68.87
2022-10-22T12:41:59.503Z,68.30
2022-10-22T12:44:26.037Z,68.65
2022-10-22T12:46:56.075Z,68.64
2022-10-22T12:49:35.478Z,68.17
2022-10-22T12:52:10.872Z,67.00
2022-10-22T12:54:40.806Z,67.05
2022-10-22T12:57:13.932Z,66.50
2022-10-22T12:59:47.257Z,68.22
2022-10-22T13:02:22.913Z,68.83
2022-10-22T13:05:14.982Z,69.37
2022-10-22T13:07:46.711Z,69.76
2022-10-22T13:10:22.832Z,68.52
2022-10-22T13:12:51.391Z,68.95
2022-10-22T13:15:38.692Z,68.19
2022-10-22T13:18:26.858Z,68.85
2022-10-22T13:21:03.062Z,69.04
2022-10-22T13:23:32.011Z,68.35
2022-10-22T13:26:11.861Z,69.23
2022-10-22T13:28:45.986Z,69.73
2022-10-22T13:31:27.208Z,69.09
2022-10-22T13:34:00.658Z,70.00
2022-10-22T13:36:33.038Z,69.84
2022-10-22T13:39:00.130Z,69.65
2022-10-22T13:41:28.432Z,69.39
2022-10-22T13:43:56.450Z,69.69
2022-10-22T13:46:26.251Z,70.09
2022-10-22T13:48:56.097Z,70.59
2022-10-22T13:51:34.964Z,70.78
2022-10-22T13:54:14.376Z,70.48
2022-10-22T13:56:40.965Z,71.06
2022-10-22T13:59:09.262Z,70.20
2022-10-22T14:01:36.879Z,71.23
2022-10-22T14:04:05.964Z,71.04
2022-10-22T14:09:08.870Z,71.55
2022-10-22T14:11:35.479Z,70.98
2022-10-22T14:14:08.822Z,69.71
2022-10-22T14:16:37.617Z,70.00
2022-10-22T14:19:10.484Z,69.96
2022-10-22T14:21:41.063Z,70.69
2022-10-22T14:24:12.918Z,71.79
2022-10-22T14:26:40.289Z,73.14
2022-10-22T14:29:10.312Z,73.94
2022-10-22T14:31:43.840Z,74.93
2022-10-22T14:34:16.317Z,75.41
2022-10-22T14:36:48.848Z,76.66
2022-10-22T14:39:15.342Z,76.75
2022-10-22T14:41:45.237Z,76.82
2022-10-22T14:44:13.989Z,76.86
2022-10-22T14:46:42.631Z,77.38
2022-10-22T14:49:09.162Z,78.72
2022-10-22T14:51:35.677Z,78.28
2022-10-22T14:54:02.300Z,78.86
2022-10-22T14:56:29.036Z,79.66
2022-10-22T14:58:55.617Z,79.19
2022-10-22T15:01:22.256Z,77.11
2022-10-22T15:03:48.747Z,77.33
2022-10-22T15:06:15.540Z,77.99
2022-10-22T15:08:42.115Z,78.29
2022-10-22T15:11:11.714Z,78.78
2022-10-22T15:13:39.296Z,79.11
2022-10-22T15:16:11.183Z,79.13
2022-10-22T15:18:38.008Z,78.75
2022-10-22T15:21:16.729Z,78.93
2022-10-22T15:23:43.378Z,78.29
2022-10-22T15:26:12.131Z,78.89
2022-10-22T15:28:40.771Z,79.02
2022-10-22T15:31:08.355Z,79.53
2022-10-22T15:33:34.902Z,79.68
2022-10-22T15:36:14.494Z,79.92
2022-10-22T15:38:41.143Z,80.47
2022-10-22T15:41:10.133Z,80.52
2022-10-22T15:43:36.940Z,80.22
2022-10-22T15:46:14.240Z,80.87
2022-10-22T15:48:41.342Z,80.59
2022-10-22T15:51:19.038Z,80.42
2022-10-22T15:53:56.022Z,81.09
2022-10-22T15:56:26.370Z,81.11
2022-10-22T15:59:00.918Z,81.57
2022-10-22T16:01:28.667Z,81.90
2022-10-22T16:04:02.799Z,81.98
2022-10-22T16:06:36.139Z,82.88
2022-10-22T16:09:06.204Z,82.95
2022-10-22T16:11:33.261Z,83.21
2022-10-22T16:14:00.359Z,81.90
2022-10-22T16:16:29.750Z,81.97
2022-10-22T16:18:56.458Z,81.46
2022-10-22T16:21:24.467Z,82.39
2022-10-22T16:23:54.508Z,83.33
2022-10-22T16:26:21.466Z,83.94
2022-10-22T16:28:51.402Z,84.08
2022-10-22T16:31:19.757Z,84.81
2022-10-22T16:33:49.995Z,85.05
2022-10-22T16:36:19.652Z,84.80
2022-10-22T16:38:47.578Z,84.71
2022-10-22T16:41:20.623Z,84.94
2022-10-22T16:43:49.609Z,85.73
2022-10-22T16:46:18.365Z,85.56
2022-10-22T16:48:52.839Z,85.44
2022-10-22T16:51:26.522Z,85.26
2022-10-22T16:53:54.284Z,85.61
2022-10-22T16:56:21.331Z,85.52
2022-10-22T16:58:50.413Z,85.98
2022-10-22T17:01:18.643Z,87.30
2022-10-22T17:03:48.187Z,87.01
2022-10-22T17:06:16.828Z,86.68
2022-10-22T17:08:43.818Z,85.65
2022-10-22T17:11:19.772Z,86.77
2022-10-22T17:13:52.725Z,88.00
2022-10-22T17:16:24.654Z,88.79
2022-10-22T17:18:53.751Z,89.23
2022-10-22T17:21:20.947Z,88.24
2022-10-22T17:23:48.032Z,88.38
2022-10-22T17:26:26.973Z,88.08
2022-10-22T17:28:56.559Z,89.81
2022-10-22T17:31:38.089Z,90.46
2022-10-22T17:34:17.598Z,90.72
2022-10-22T17:36:44.737Z,90.45
2022-10-22T17:39:17.824Z,91.71
2022-10-22T17:41:47.439Z,91.33
2022-10-22T17:44:17.185Z,91.54
2022-10-22T17:46:45.503Z,92.44
2022-10-22T17:49:28.555Z,92.49
2022-10-22T17:51:55.244Z,91.65
2022-10-22T17:54:24.218Z,91.80
2022-10-22T17:56:50.927Z,91.53
2022-10-22T17:59:17.864Z,91.27
2022-10-22T18:01:46.670Z,91.42
2022-10-22T18:04:18.977Z,91.10
2022-10-22T18:06:47.340Z,90.92
2022-10-22T18:09:20.208Z,90.06
2022-10-22T18:11:51.240Z,89.76
2022-10-22T18:14:20.139Z,91.57
2022-10-22T18:16:47.530Z,91.91
2022-10-22T18:19:21.724Z,91.47
2022-10-22T18:21:48.722Z,90.64
2022-10-22T18:24:16.351Z,90.44
2022-10-22T18:26:43.514Z,90.88
2022-10-22T18:29:13.631Z,90.53
2022-10-22T18:31:40.312Z,91.11
2022-10-22T18:34:07.015Z,91.20
2022-10-22T18:36:33.723Z,91.06
2022-10-22T18:39:02.584Z,91.02
2022-10-22T18:41:31.810Z,92.29
2022-10-22T18:44:04.110Z,92.55
2022-10-22T18:46:34.833Z,91.40
2022-10-22T18:49:04.173Z,91.34
2022-10-22T18:51:31.689Z,92.08
2022-10-22T18:54:18.009Z,92.55
2022-10-22T18:56:46.683Z,91.94
2022-10-22T18:59:22.545Z,91.15
2022-10-22T19:01:49.467Z,91.14
2022-10-22T19:04:16.008Z,93.11
2022-10-22T19:06:45.372Z,93.66
2022-10-22T19:09:13.632Z,90.81
2022-10-22T19:11:42.933Z,92.68
2022-10-22T19:14:09.576Z,93.14
2022-10-22T19:16:39.111Z,93.78
2022-10-22T19:19:07.914Z,93.93
2022-10-22T19:21:34.753Z,93.94
2022-10-22T19:24:02.768Z,94.43
2022-10-22T19:26:30.574Z,95.01
2022-10-22T19:28:58.989Z,94.81
2022-10-22T19:31:26.688Z,94.71
2022-10-22T19:33:56.734Z,95.02
2022-10-22T19:36:25.336Z,96.07
2022-10-22T19:38:54.461Z,96.41
2022-10-22T19:41:23.109Z,95.58
2022-10-22T19:43:53.163Z,95.06
2022-10-22T19:46:20.929Z,96.73
2022-10-22T19:48:48.824Z,97.12
2022-10-22T19:51:21.358Z,96.47
2022-10-22T19:53:49.203Z,97.45
2022-10-22T19:56:22.274Z,98.41
2022-10-22T19:58:49.441Z,99.66
2022-10-22T20:01:23.356Z,99.91
2022-10-22T20:03:50.836Z,99.19
2022-10-22T20:06:18.279Z,98.51
2022-10-22T20:08:45.818Z,98.82
2022-10-22T20:11:27.421Z,99.79
2022-10-22T20:13:54.631Z,99.86
2022-10-22T20:16:24.383Z,99.90
2022-10-22T20:18:54.305Z,99.22
2022-10-22T20:21:26.678Z,98.54
2022-10-22T20:23:54.620Z,98.20
2022-10-22T20:26:24.011Z,97.79
2022-10-22T20:28:55.760Z,98.91
2022-10-22T20:31:26.815Z,99.67
2022-10-22T20:33:58.426Z,100.00
2022-10-22T20:36:26.541Z,100.00
2022-10-22T20:39:01.856Z,100.00
2022-10-22T20:41:29.408Z,99.89
2022-10-22T20:43:56.799Z,100.00
2022-10-22T20:46:29.412Z,100.00
2022-10-22T20:49:18.898Z,100.00
2022-10-22T20:51:48.615Z,100.00
2022-10-22T20:54:16.209Z,100.00
2022-10-22T20:56:44.559Z,100.00
2022-10-22T20:59:16.600Z,100.00
2022-10-22T21:01:47.199Z,100.00
2022-10-22T21:04:14.493Z,99.11
2022-10-22T21:06:43.130Z,100.00
2022-10-22T21:09:13.524Z,100.00
2022-10-22T21:11:42.385Z,99.38
2022-10-22T21:14:11.688Z,97.34
2022-10-22T21:16:43.074Z,98.17
2022-10-22T21:19:10.092Z,96.66
2022-10-22T21:21:36.565Z,96.42
2022-10-22T21:24:03.606Z,97.13
2022-10-22T21:26:30.324Z,97.39
2022-10-22T21:28:56.865Z,97.41
2022-10-22T21:31:26.016Z,96.47
2022-10-22T21:33:53.581Z,96.37
2022-10-22T21:36:22.917Z,97.98
2022-10-22T21:38:51.428Z,97.94
2022-10-22T21:41:20.040Z,95.85
2022-10-22T21:43:46.622Z,95.00
2022-10-22T21:46:18.865Z,97.12
2022-10-22T21:49:01.073Z,97.14
2022-10-22T21:51:29.268Z,97.03
2022-10-22T21:53:56.053Z,97.79
2022-10-22T21:56:28.534Z,97.45
2022-10-22T21:58:58.632Z,98.68
2022-10-22T22:01:25.681Z,97.95
2022-10-22T22:03:52.808Z,98.26
2022-10-22T22:06:22.018Z,97.16
2022-10-22T22:08:49.246Z,99.18
2022-10-22T22:11:18.744Z,99.29
2022-10-22T22:13:45.855Z,99.72
2022-10-22T22:16:16.719Z,99.22
2022-10-22T22:18:43.527Z,99.35
2022-10-22T22:21:18.127Z,100.00
2022-10-22T22:23:46.615Z,99.29
2022-10-22T22:26:15.806Z,98.88
2022-10-22T22:28:45.345Z,99.14
2022-10-22T22:31:23.895Z,99.89
2022-10-22T22:33:51.449Z,100.00
2022-10-22T22:36:18.096Z,100.00
2022-10-22T22:38:44.682Z,100.00
2022-10-22T22:41:11.397Z,99.29
2022-10-22T22:43:38.077Z,99.32
2022-10-22T22:46:10.635Z,99.31
2022-10-22T22:48:37.493Z,98.83
2022-10-22T22:51:06.032Z,98.77
2022-10-22T22:53:33.953Z,96.93
2022-10-22T22:56:18.645Z,97.69
2022-10-22T22:58:46.112Z,98.23
2022-10-22T23:01:16.670Z,97.40
2022-10-22T23:03:47.518Z,97.42
2022-10-22T23:06:15.232Z,97.58
2022-10-22T23:08:43.158Z,97.32
2022-10-22T23:11:14.298Z,96.92
2022-10-22T23:13:42.075Z,96.27
2022-10-22T23:16:18.153Z,97.44
2022-10-22T23:18:46.386Z,97.24
2022-10-22T23:21:22.521Z,97.63
2022-10-22T23:24:01.560Z,97.36
2022-10-22T23:26:34.391Z,97.92
2022-10-22T23:29:06.834Z,98.24
2022-10-22T23:31:35.383Z,98.32
2022-10-22T23:34:02.360Z,98.02
2022-10-22T23:36:28.979Z,98.62
2022-10-22T23:38:56.017Z,98.42
2022-10-22T23:41:22.769Z,98.97
2022-10-22T23:43:50.934Z,98.88
2022-10-22T23:46:19.207Z,98.99
2022-10-22T23:48:49.170Z,98.75
2022-10-22T23:51:17.197Z,98.73
2022-10-22T23:53:45.462Z,98.40
2022-10-22T23:56:15.603Z,98.47
2022-10-22T23:58:43.524Z,99.18
